Time;durP1;ratioP1;P1;durP2;ratioP2;P2;SDS_P1;SDS_P2;PMS_P1;PMS_P2;Temp;Humidity;BMP_temperature;BMP_pressure;BME280_temperature;BME280_humidity;BME280_pressure;Samples;Min_cycle;Max_cycle;Signal;HPM_P1;HPM_P2
2023/06/19 00:01:42;;;;;;;4.47;3.83;;;;;;;18.97;83.34;94753.69;5087756;28;20190;-46
2023/06/19 00:04:10;;;;;;;4.00;3.60;;;;;;;18.92;83.52;94739.72;5091713;28;20189;-46
2023/06/19 00:06:37;;;;;;;5.00;4.50;;;;;;;18.97;83.47;94752.91;5090365;28;20193;-45
2023/06/19 00:09:04;;;;;;;4.63;4.10;;;;;;;18.96;83.58;94751.31;5089665;28;20228;-45
2023/06/19 00:11:31;;;;;;;8.47;4.13;;;;;;;18.94;83.45;94748.09;5089431;28;20189;-43
2023/06/19 00:14:00;;;;;;;4.70;4.30;;;;;;;18.94;83.43;94743.69;5093525;28;20200;-45
2023/06/19 00:16:27;;;;;;;4.57;4.17;;;;;;;18.94;83.83;94748.88;5093806;28;20332;-45
2023/06/19 00:18:55;;;;;;;6.93;4.13;;;;;;;18.91;83.76;94746.69;5093301;28;20182;-46
2023/06/19 00:21:24;;;;;;;5.00;3.97;;;;;;;18.93;83.76;94749.06;5092888;28;20181;-44
2023/06/19 00:23:51;;;;;;;3.63;3.33;;;;;;;18.92;83.88;94744.88;5093212;28;20185;-45
2023/06/19 00:26:17;;;;;;;5.20;4.70;;;;;;;18.88;83.49;94739.28;5093149;28;20232;-45
2023/06/19 00:28:45;;;;;;;4.87;3.80;;;;;;;18.91;83.41;94746.69;5093310;28;20209;-46
2023/06/19 00:31:13;;;;;;;6.97;4.70;;;;;;;18.91;83.61;94736.31;5092687;28;20204;-45
2023/06/19 00:33:40;;;;;;;4.97;4.30;;;;;;;18.91;83.39;94736.31;5093333;28;20196;-48
2023/06/19 00:36:10;;;;;;;6.47;4.17;;;;;;;18.91;83.67;94738.91;5093028;28;20193;-46
2023/06/19 00:38:37;;;;;;;5.40;4.13;;;;;;;18.91;83.27;94738.06;5092691;28;20276;-47
2023/06/19 00:41:04;;;;;;;5.27;4.17;;;;;;;18.88;83.39;94730.69;5092687;28;20201;-46
2023/06/19 00:43:31;;;;;;;4.20;3.87;;;;;;;18.91;83.12;94730.31;5093130;28;20216;-46
2023/06/19 00:45:58;;;;;;;4.70;3.93;;;;;;;18.90;83.03;94728.72;5092632;28;20200;-44
2023/06/19 00:48:29;;;;;;;8.73;3.73;;;;;;;18.89;82.76;94733.09;5093005;28;20635;-45
2023/06/19 00:50:56;;;;;;;5.23;4.70;;;;;;;18.87;82.66;94724.72;5092523;28;20194;-44
2023/06/19 00:53:24;;;;;;;5.23;4.33;;;;;;;18.84;82.87;94722.50;5093001;28;20182;-46
2023/06/19 00:55:52;;;;;;;4.77;4.20;;;;;;;18.78;83.02;94716.28;5092765;28;20565;-46
2023/06/19 00:58:20;;;;;;;4.03;3.73;;;;;;;18.74;83.17;94714.25;5092773;28;20266;-45
2023/06/19 01:00:47;;;;;;;4.23;3.70;;;;;;;18.69;82.98;94699.25;5092907;28;20245;-46
2023/06/19 01:03:13;;;;;;;5.43;3.43;;;;;;;18.64;83.21;94698.97;5092478;28;20225;-46
2023/06/19 01:05:42;;;;;;;4.90;4.40;;;;;;;18.58;83.40;94696.34;5093132;28;20203;-45
2023/06/19 01:08:13;;;;;;;5.97;3.97;;;;;;;18.53;83.68;94696.91;5093063;28;20706;-43
2023/06/19 01:10:50;;;;;;;5.70;4.17;;;;;;;18.47;83.95;94693.25;5092357;28;20263;-46
2023/06/19 01:13:26;;;;;;;5.90;4.40;;;;;;;18.41;84.18;94690.63;5091916;28;20272;-45
2023/06/19 01:15:54;;;;;;;8.60;4.30;;;;;;;18.35;84.56;94692.19;5092276;28;20254;-45
2023/06/19 01:18:21;;;;;;;5.50;4.77;;;;;;;18.29;84.91;94690.31;5092115;28;20193;-48
2023/06/19 01:20:50;;;;;;;4.13;3.73;;;;;;;18.26;85.31;94693.25;5092361;28;20208;-44
2023/06/19 01:23:18;;;;;;;4.50;4.10;;;;;;;18.23;85.36;94693.66;5091158;28;20198;-44
2023/06/19 01:25:45;;;;;;;4.73;4.03;;;;;;;18.18;85.66;94698.59;5092061;28;20611;-45
2023/06/19 01:28:13;;;;;;;5.33;4.83;;;;;;;18.14;85.66;94690.38;5091872;28;20629;-45
2023/06/19 01:30:42;;;;;;;7.67;4.20;;;;;;;18.09;85.84;94691.91;5092465;28;20194;-47
2023/06/19 01:33:13;;;;;;;6.53;4.27;;;;;;;18.08;86.11;94698.88;5093394;28;20576;-45
2023/06/19 01:35:43;;;;;;;5.07;4.57;;;;;;;18.03;86.28;94696.03;5092988;28;20559;-45
2023/06/19 01:38:11;;;;;;;6.43;4.80;;;;;;;18.00;86.47;94701.56;5092539;28;20231;-45
2023/06/19 01:40:41;;;;;;;4.40;4.00;;;;;;;17.94;86.58;94695.34;5093343;28;20186;-44
2023/06/19 01:43:09;;;;;;;7.03;4.07;;;;;;;17.93;86.91;94714.44;5092839;28;20251;-45
2023/06/19 01:45:36;;;;;;;4.33;3.93;;;;;;;17.87;87.13;94709.19;5092513;28;20270;-45
2023/06/19 01:48:04;;;;;;;7.77;4.47;;;;;;;17.86;87.33;94708.38;5091504;28;20211;-46
2023/06/19 01:50:30;;;;;;;4.50;4.10;;;;;;;17.80;87.80;94715.09;5091928;28;20185;-45
2023/06/19 01:52:58;;;;;;;7.07;4.40;;;;;;;17.74;87.79;94710.63;5091602;28;20185;-44
2023/06/19 01:55:25;;;;;;;7.43;4.50;;;;;;;17.73;88.67;94710.78;5091908;28;20657;-44
2023/06/19 01:57:53;;;;;;;5.00;4.10;;;;;;;17.68;88.90;94710.53;5091567;28;20189;-45
2023/06/19 02:00:20;;;;;;;6.47;4.83;;;;;;;17.63;89.50;94712.88;5091706;28;20201;-45
2023/06/19 02:02:47;;;;;;;4.70;4.30;;;;;;;17.59;89.96;94719.38;5091356;28;20186;-44
2023/06/19 02:05:15;;;;;;;4.20;3.80;;;;;;;17.49;91.07;94714.50;5096732;28;20255;-44
2023/06/19 02:07:41;;;;;;;5.00;4.50;;;;;;;17.48;91.57;94716.25;5091591;28;20189;-46
2023/06/19 02:10:09;;;;;;;6.07;4.60;;;;;;;17.43;92.41;94722.94;5091550;28;20228;-45
2023/06/19 02:12:36;;;;;;;6.40;4.53;;;;;;;17.39;92.59;94716.53;5091689;28;20189;-46
2023/06/19 02:15:04;;;;;;;5.73;4.63;;;;;;;17.35;92.63;94729.00;5091351;28;20218;-44
2023/06/19 02:17:31;;;;;;;5.47;4.93;;;;;;;17.29;93.25;94725.34;5072119;28;20194;-45
2023/06/19 02:19:58;;;;;;;5.23;4.60;;;;;;;17.26;93.51;94728.28;5070541;28;20623;-45
2023/06/19 02:22:25;;;;;;;6.70;4.53;;;;;;;17.22;93.97;94731.41;5071228;28;20193;-46
2023/06/19 02:24:51;;;;;;;5.37;4.87;;;;;;;17.18;94.20;94730.16;5074847;28;20600;-46
2023/06/19 02:27:18;;;;;;;5.60;4.90;;;;;;;17.14;94.59;94728.91;5091027;28;20243;-44
2023/06/19 02:29:45;;;;;;;6.53;4.40;;;;;;;17.10;94.75;94728.47;5090474;28;20319;-44
2023/06/19 02:32:13;;;;;;;5.57;5.00;;;;;;;17.06;94.92;94727.22;5090770;28;20194;-46
2023/06/19 02:34:40;;;;;;;6.67;4.40;;;;;;;17.03;95.05;94733.53;5091033;28;20281;-44
2023/06/19 02:37:08;;;;;;;5.27;4.87;;;;;;;17.02;94.60;94731.13;5090337;28;20661;-46
2023/06/19 02:39:34;;;;;;;5.53;4.70;;;;;;;17.00;94.42;94740.81;5090863;28;20688;-46
2023/06/19 02:42:01;;;;;;;6.70;4.60;;;;;;;16.99;94.26;94740.03;5090590;28;20254;-46
2023/06/19 02:44:28;;;;;;;10.13;4.80;;;;;;;16.98;94.32;94745.38;5090799;28;20189;-46
2023/06/19 02:46:55;;;;;;;5.30;4.80;;;;;;;16.95;94.44;94738.78;5090427;28;20668;-46
2023/06/19 02:49:23;;;;;;;6.20;4.53;;;;;;;16.96;94.76;94739.56;5092957;28;20217;-45
2023/06/19 02:51:49;;;;;;;5.80;5.20;;;;;;;16.94;94.76;94741.53;5094108;28;20235;-46
2023/06/19 02:54:16;;;;;;;7.73;5.40;;;;;;;16.93;94.95;94743.31;5091861;28;20193;-46
2023/06/19 02:56:43;;;;;;;6.27;5.00;;;;;;;16.94;94.91;94744.13;5090544;28;20185;-46
2023/06/19 02:59:10;;;;;;;7.00;5.80;;;;;;;16.94;95.03;94742.34;5089870;28;20261;-45
2023/06/19 03:01:36;;;;;;;5.73;5.20;;;;;;;16.92;95.27;94746.06;5090383;28;20189;-45
2023/06/19 03:04:03;;;;;;;6.67;5.57;;;;;;;16.92;95.39;94746.88;5089927;28;20200;-44
2023/06/19 03:06:33;;;;;;;8.93;5.23;;;;;;;16.91;95.41;94740.09;5089656;28;20190;-44
2023/06/19 03:09:00;;;;;;;6.90;5.47;;;;;;;16.95;95.56;94745.72;5089318;28;20205;-46
2023/06/19 03:11:27;;;;;;;6.60;5.60;;;;;;;16.94;95.58;94742.34;5089622;28;20185;-44
2023/06/19 03:13:55;;;;;;;8.23;5.20;;;;;;;16.96;95.51;94737.78;5089654;28;20205;-45
2023/06/19 03:16:22;;;;;;;7.77;5.20;;;;;;;16.99;95.28;94742.63;5090220;28;20726;-45
2023/06/19 03:18:49;;;;;;;7.97;5.20;;;;;;;17.02;95.02;94744.06;5089778;28;20195;-47
2023/06/19 03:21:16;;;;;;;7.93;5.50;;;;;;;17.05;94.65;94744.50;5090347;28;20221;-44
2023/06/19 03:23:45;;;;;;;9.40;5.90;;;;;;;17.13;94.58;94743.59;5090670;28;20182;-46
2023/06/19 03:26:12;;;;;;;10.20;6.27;;;;;;;17.22;94.01;94744.31;5090751;28;20236;-45
2023/06/19 03:28:39;;;;;;;6.07;5.47;;;;;;;17.28;93.78;94748.81;5089602;28;20657;-44
2023/06/19 03:31:05;;;;;;;7.90;6.00;;;;;;;17.29;93.44;94748.63;5089568;28;20196;-45
2023/06/19 03:33:32;;;;;;;7.77;5.40;;;;;;;17.30;93.07;94737.28;5089458;28;20190;-45
2023/06/19 03:35:59;;;;;;;6.27;5.07;;;;;;;17.38;92.73;94749.34;5089743;28;20189;-47
2023/06/19 03:38:26;;;;;;;5.30;4.80;;;;;;;17.42;91.91;94737.66;5090048;28;20190;-44
2023/06/19 03:40:54;;;;;;;5.37;4.87;;;;;;;17.48;91.40;94749.06;5089716;28;20196;-42
2023/06/19 03:43:20;;;;;;;7.70;5.23;;;;;;;17.51;91.23;94746.94;5091080;28;20235;-45
2023/06/19 03:45:47;;;;;;;6.73;5.13;;;;;;;17.59;90.80;94748.63;5089727;28;20197;-46
2023/06/19 03:48:14;;;;;;;5.90;5.23;;;;;;;17.64;90.55;94754.06;5089276;28;20242;-45
2023/06/19 03:50:41;;;;;;;5.53;4.87;;;;;;;17.48;90.71;94718.84;5089757;28;20302;-46
2023/06/19 03:53:08;;;;;;;9.93;5.57;;;;;;;17.75;89.04;94748.47;5090224;28;20185;-46
2023/06/19 03:55:35;;;;;;;5.50;5.00;;;;;;;17.80;88.40;94738.38;5089396;28;20190;-45
2023/06/19 03:58:03;;;;;;;13.13;4.70;;;;;;;17.89;88.35;94748.63;5089386;28;20193;-46
2023/06/19 04:00:30;;;;;;;6.13;5.53;;;;;;;17.89;88.51;94748.63;5089272;28;20190;-46
2023/06/19 04:02:57;;;;;;;6.53;5.13;;;;;;;17.95;88.49;94750.47;5090163;28;20630;-46
2023/06/19 04:05:24;;;;;;;5.10;4.30;;;;;;;17.99;88.22;94747.34;5091252;28;20353;-48
2023/06/19 04:07:51;;;;;;;9.03;5.10;;;;;;;18.07;87.97;94743.84;5090141;28;20216;-43
2023/06/19 04:10:18;;;;;;;7.13;5.20;;;;;;;18.10;87.69;94734.94;5090564;28;20232;-43
2023/06/19 04:12:46;;;;;;;7.07;4.83;;;;;;;18.20;87.45;94740.59;5089824;28;20178;-45
2023/06/19 04:15:14;;;;;;;8.17;5.53;;;;;;;18.30;86.78;94746.28;5089237;28;20193;-47
2023/06/19 04:17:40;;;;;;;7.60;4.70;;;;;;;18.37;86.30;94747.16;5089089;28;20189;-44
2023/06/19 04:20:10;;;;;;;7.20;5.33;;;;;;;18.42;86.35;94741.41;5089847;28;20178;-44
2023/06/19 04:22:38;;;;;;;5.70;4.77;;;;;;;18.44;86.05;94739.47;5088512;28;20198;-47
2023/06/19 04:25:06;;;;;;;18.93;4.83;;;;;;;18.55;85.90;94736.38;5088622;28;20323;-47
2023/06/19 04:27:32;;;;;;;8.13;5.43;;;;;;;18.62;85.69;94731.25;5088954;28;20189;-47
2023/06/19 04:29:59;;;;;;;5.50;5.00;;;;;;;18.72;85.47;94732.56;5089219;28;20228;-46
2023/06/19 04:32:27;;;;;;;5.93;5.23;;;;;;;18.82;84.95;94734.03;5088526;28;20647;-45
2023/06/19 04:34:54;;;;;;;5.87;4.53;;;;;;;18.94;84.57;94737.72;5089487;28;20258;-46
2023/06/19 04:37:21;;;;;;;7.07;4.87;;;;;;;19.03;84.00;94737.38;5089052;28;20196;-45
2023/06/19 04:39:47;;;;;;;5.40;4.90;;;;;;;19.12;84.12;94738.03;5089206;28;20220;-47
2023/06/19 04:42:19;;;;;;;6.77;4.40;;;;;;;19.17;83.08;94724.50;5088691;28;20201;-46
2023/06/19 04:44:46;;;;;;;8.10;4.80;;;;;;;19.31;81.81;94731.41;5089043;28;20687;-45
2023/06/19 04:47:12;;;;;;;5.40;4.77;;;;;;;19.41;82.06;94737.03;5088688;28;20197;-46
2023/06/19 04:49:41;;;;;;;5.27;4.70;;;;;;;19.50;82.18;94740.28;5088805;28;20225;-47
2023/06/19 04:52:08;;;;;;;5.73;4.63;;;;;;;19.61;82.08;94741.56;5088569;28;20202;-45
2023/06/19 04:54:35;;;;;;;5.43;4.43;;;;;;;19.61;82.04;94724.22;5089242;28;20641;-47
2023/06/19 04:57:02;;;;;;;4.47;4.05;;;;;;;19.85;78.92;94737.66;5088789;28;20246;-47
2023/06/19 04:59:30;;;;;;;5.05;4.55;;;;;;;19.92;78.22;94734.13;5092481;28;20225;-46
2023/06/19 05:01:57;;;;;;;5.10;4.50;;;;;;;19.98;78.19;94735.13;5093134;28;20181;-46
2023/06/19 05:04:24;;;;;;;8.45;4.68;;;;;;;20.05;75.91;94725.56;5092680;28;20194;-47
2023/06/19 05:06:52;;;;;;;10.10;4.40;;;;;;;20.22;75.93;94731.22;5093310;28;20239;-47
2023/06/19 05:09:19;;;;;;;4.53;3.53;;;;;;;20.34;73.61;94740.03;5092531;28;20242;-46
2023/06/19 05:11:46;;;;;;;4.65;4.25;;;;;;;20.50;73.56;94731.88;5092801;28;20764;-46
2023/06/19 05:14:14;;;;;;;4.75;4.22;;;;;;;20.69;72.45;94709.53;5092269;28;20630;-47
2023/06/19 05:16:41;;;;;;;4.93;4.32;;;;;;;21.18;71.77;94736.91;5092991;28;20185;-47
2023/06/19 05:19:08;;;;;;;8.82;4.72;;;;;;;21.59;72.38;94735.03;5090659;28;20206;-47
2023/06/19 05:21:35;;;;;;;5.90;4.55;;;;;;;22.05;71.34;94745.28;5076947;28;20684;-49
2023/06/19 05:24:04;;;;;;;5.70;4.45;;;;;;;22.52;67.25;94748.50;5071811;28;20259;-46
2023/06/19 05:26:30;;;;;;;5.95;4.50;;;;;;;22.87;67.46;94748.84;5072080;28;20585;-46
2023/06/19 05:28:57;;;;;;;5.65;4.13;;;;;;;23.28;66.03;94748.34;5084907;28;20188;-47
2023/06/19 05:31:24;;;;;;;5.40;4.22;;;;;;;23.62;64.35;94761.03;5091588;28;20259;-47
2023/06/19 05:33:51;;;;;;;5.15;4.35;;;;;;;23.77;62.45;94758.91;5091817;28;20197;-47
2023/06/19 05:36:18;;;;;;;4.75;4.13;;;;;;;23.97;62.41;94769.94;5091051;28;20194;-46
2023/06/19 05:38:45;;;;;;;3.60;3.30;;;;;;;24.18;62.06;94773.09;5090673;28;20193;-46
2023/06/19 05:41:15;;;;;;;6.30;4.22;;;;;;;24.47;61.08;94780.19;5091182;28;20209;-47
2023/06/19 05:43:43;;;;;;;5.20;3.65;;;;;;;24.74;60.42;94779.81;5091748;28;20190;-45
2023/06/19 05:46:10;;;;;;;4.25;3.85;;;;;;;24.51;59.68;94699.50;5091460;28;20209;-46
2023/06/19 05:48:37;;;;;;;6.93;4.03;;;;;;;25.25;58.09;94778.47;5091508;28;20193;-46
2023/06/19 05:51:04;;;;;;;4.60;3.85;;;;;;;25.38;58.30;94764.38;5089693;28;20225;-45
2023/06/19 05:53:31;;;;;;;4.32;3.33;;;;;;;25.52;56.71;94771.00;5092741;28;20201;-48
2023/06/19 05:55:59;;;;;;;5.03;3.70;;;;;;;25.66;56.94;94774.16;5095070;28;20209;-46
2023/06/19 05:58:27;;;;;;;5.78;4.22;;;;;;;25.87;55.85;94770.19;5097179;28;20224;-46
2023/06/19 06:00:57;;;;;;;3.70;3.40;;;;;;;25.94;55.64;94779.47;5097174;28;20216;-47
2023/06/19 06:03:24;;;;;;;5.60;5.00;;;;;;;26.05;55.10;94775.25;5097970;28;20200;-46
2023/06/19 06:05:50;;;;;;;4.72;4.13;;;;;;;26.18;55.21;94777.63;5097135;28;20198;-47
2023/06/19 06:08:17;;;;;;;3.92;3.42;;;;;;;26.33;55.44;94776.31;5095926;28;20182;-48
2023/06/19 06:10:44;;;;;;;3.92;3.63;;;;;;;26.45;54.97;94779.72;5095950;28;20202;-46
2023/06/19 06:13:11;;;;;;;6.18;3.40;;;;;;;26.52;54.92;94788.25;5097230;28;20614;-46
2023/06/19 06:15:39;;;;;;;5.50;3.92;;;;;;;26.53;55.12;94787.22;5097818;28;20189;-46
2023/06/19 06:18:06;;;;;;;4.25;3.50;;;;;;;26.69;55.04;94786.47;5097220;28;20189;-47
2023/06/19 06:20:33;;;;;;;7.43;4.75;;;;;;;26.80;54.48;94781.38;5092648;28;20518;-47
2023/06/19 06:23:00;;;;;;;8.10;4.05;;;;;;;26.84;54.12;94801.66;5090241;28;20204;-47
2023/06/19 06:25:26;;;;;;;4.30;3.90;;;;;;;26.92;54.82;94792.63;5090698;28;20723;-46
2023/06/19 06:27:53;;;;;;;6.32;4.10;;;;;;;27.05;54.08;94800.19;5089999;28;20251;-46
2023/06/19 06:30:20;;;;;;;3.50;3.20;;;;;;;27.06;53.52;94790.47;5089858;28;20231;-45
2023/06/19 06:32:48;;;;;;;3.80;3.20;;;;;;;27.21;52.93;94788.13;5090171;28;20190;-45
2023/06/19 06:35:16;;;;;;;5.72;3.53;;;;;;;27.26;52.28;94796.88;5090100;28;20189;-47
2023/06/19 06:37:43;;;;;;;6.93;3.63;;;;;;;27.22;52.18;94792.34;5089551;28;20197;-46
2023/06/19 06:40:11;;;;;;;9.82;4.00;;;;;;;27.28;52.60;94794.00;5090177;28;20198;-45
2023/06/19 06:42:38;;;;;;;3.88;3.40;;;;;;;27.46;51.37;94801.66;5089453;28;20181;-45
2023/06/19 06:45:06;;;;;;;4.65;3.40;;;;;;;27.65;50.31;94799.56;5091182;28;20193;-46
2023/06/19 06:47:33;;;;;;;3.53;3.28;;;;;;;27.69;49.80;94798.03;5089823;28;20566;-46
2023/06/19 06:50:02;;;;;;;4.60;4.03;;;;;;;27.82;49.51;94799.56;5090053;28;20205;-45
2023/06/19 06:52:30;;;;;;;3.33;3.13;;;;;;;27.83;49.17;94789.84;5091783;28;20189;-46
2023/06/19 06:54:58;;;;;;;4.57;3.50;;;;;;;27.96;47.72;94798.16;5089967;28;20665;-48
2023/06/19 06:57:26;;;;;;;3.58;3.28;;;;;;;27.83;48.64;94795.88;5090015;28;20193;-45
2023/06/19 06:59:52;;;;;;;6.47;3.85;;;;;;;27.89;48.70;94794.94;5090178;28;20190;-47
2023/06/19 07:02:19;;;;;;;9.10;3.67;;;;;;;27.94;48.74;94796.81;5090009;28;20189;-46
2023/06/19 07:04:46;;;;;;;3.67;3.38;;;;;;;27.96;48.24;94794.72;5089967;28;20189;-48
2023/06/19 07:07:15;;;;;;;4.82;3.13;;;;;;;27.91;48.38;94797.31;5089268;28;20640;-46
2023/06/19 07:09:41;;;;;;;6.35;3.50;;;;;;;27.92;48.50;94793.63;5089336;28;20565;-47
2023/06/19 07:12:09;;;;;;;3.05;2.85;;;;;;;28.04;47.36;94796.16;5088519;28;20201;-47
2023/06/19 07:14:36;;;;;;;4.00;3.70;;;;;;;27.99;48.68;94795.06;5089448;28;20227;-46
2023/06/19 07:17:03;;;;;;;3.90;3.50;;;;;;;28.17;48.13;94798.41;5089505;28;20198;-47
2023/06/19 07:19:30;;;;;;;3.58;3.28;;;;;;;28.33;47.45;94797.56;5089575;28;20198;-46
2023/06/19 07:21:57;;;;;;;4.80;3.47;;;;;;;28.46;47.03;94801.69;5089337;28;20228;-45
2023/06/19 07:24:25;;;;;;;3.90;3.50;;;;;;;28.44;46.12;94803.75;5089386;28;20190;-46
2023/06/19 07:26:52;;;;;;;3.60;3.30;;;;;;;28.28;45.98;94805.38;5089714;28;20221;-46
2023/06/19 07:29:18;;;;;;;3.83;3.53;;;;;;;28.05;47.00;94809.03;5088892;28;20242;-44
2023/06/19 07:31:45;;;;;;;4.38;3.47;;;;;;;28.03;46.81;94798.00;5089798;28;20576;-46
2023/06/19 07:34:12;;;;;;;4.95;3.05;;;;;;;28.22;47.74;94807.16;5089170;28;20199;-46
2023/06/19 07:36:39;;;;;;;4.32;3.42;;;;;;;28.41;46.00;94806.88;5089378;28;20593;-46
2023/06/19 07:39:05;;;;;;;4.47;3.70;;;;;;;28.32;46.57;94808.31;5089086;28;20251;-46
2023/06/19 07:41:34;;;;;;;3.85;3.30;;;;;;;28.33;46.13;94810.72;5088597;28;20205;-44
2023/06/19 07:44:00;;;;;;;4.15;2.90;;;;;;;28.38;43.75;94810.00;5088808;28;20201;-46
2023/06/19 07:46:27;;;;;;;3.53;3.22;;;;;;;28.22;44.84;94809.78;5088139;28;21124;-46
2023/06/19 07:48:54;;;;;;;4.93;3.28;;;;;;;28.14;45.77;94798.91;5089628;28;20197;-45
2023/06/19 07:51:21;;;;;;;4.47;3.72;;;;;;;28.12;47.10;94798.38;5092343;28;20229;-47
2023/06/19 07:53:48;;;;;;;4.18;3.78;;;;;;;28.34;47.27;94806.25;5094320;28;20588;-48
2023/06/19 07:56:15;;;;;;;4.65;3.05;;;;;;;28.38;46.96;94808.16;5091026;28;20190;-46
2023/06/19 07:58:43;;;;;;;4.25;3.83;;;;;;;28.53;47.47;94804.09;5088788;28;20192;-45
2023/06/19 08:01:10;;;;;;;4.45;3.55;;;;;;;28.62;46.80;94808.69;5088108;28;20208;-45
2023/06/19 08:03:37;;;;;;;3.53;3.22;;;;;;;28.67;45.55;94807.94;5087926;28;20611;-45
2023/06/19 08:06:04;;;;;;;4.10;3.10;;;;;;;28.73;45.78;94802.47;5088650;28;20216;-46
2023/06/19 08:08:31;;;;;;;3.50;3.20;;;;;;;29.00;46.32;94802.50;5088485;28;20560;-46
2023/06/19 08:10:57;;;;;;;3.38;3.00;;;;;;;29.20;45.82;94809.78;5088143;28;20214;-46
2023/06/19 08:13:24;;;;;;;3.75;3.17;;;;;;;29.32;44.79;94814.06;5088076;28;20619;-46
2023/06/19 08:15:52;;;;;;;3.28;2.97;;;;;;;29.14;42.09;94809.97;5088991;28;20235;-46
2023/06/19 08:18:19;;;;;;;3.38;3.08;;;;;;;29.15;42.28;94816.84;5088297;28;20182;-46
2023/06/19 08:20:46;;;;;;;4.10;3.22;;;;;;;29.23;41.63;94798.75;5088749;28;20193;-44
2023/06/19 08:23:12;;;;;;;4.63;3.20;;;;;;;29.20;40.47;94801.88;5087921;28;20193;-45
2023/06/19 08:25:39;;;;;;;3.33;3.03;;;;;;;29.20;40.96;94804.50;5089130;28;21453;-46
2023/06/19 08:28:06;;;;;;;4.68;3.47;;;;;;;29.34;41.40;94802.25;5088643;28;20664;-44
2023/06/19 08:30:33;;;;;;;3.80;3.50;;;;;;;29.17;41.28;94810.28;5088332;28;20266;-47
2023/06/19 08:33:01;;;;;;;3.53;3.25;;;;;;;29.09;42.42;94809.94;5089345;28;20677;-47
2023/06/19 08:35:28;;;;;;;3.63;3.10;;;;;;;29.12;42.09;94804.19;5092709;28;20185;-46
2023/06/19 08:37:55;;;;;;;4.03;3.58;;;;;;;29.15;43.50;94809.75;5092585;28;20208;-46
2023/06/19 08:40:22;;;;;;;3.30;3.00;;;;;;;29.20;42.22;94812.41;5093496;28;20241;-46
2023/06/19 08:42:49;;;;;;;3.38;3.10;;;;;;;29.12;40.61;94806.81;5091771;28;20247;-48
2023/06/19 08:45:18;;;;;;;3.30;3.10;;;;;;;29.11;41.14;94813.13;5091589;28;20193;-46
2023/06/19 08:47:45;;;;;;;3.67;3.08;;;;;;;29.03;40.36;94811.75;5090114;28;20293;-46
2023/06/19 08:50:13;;;;;;;3.95;3.45;;;;;;;28.83;40.19;94787.81;5089584;28;20216;-44
2023/06/19 08:52:40;;;;;;;7.10;3.47;;;;;;;28.91;42.02;94803.97;5091809;28;20197;-45
2023/06/19 08:55:08;;;;;;;3.45;3.15;;;;;;;28.94;42.25;94800.84;5091750;28;20204;-46
2023/06/19 08:57:36;;;;;;;4.15;3.38;;;;;;;29.05;41.85;94807.00;5092336;28;20197;-44
2023/06/19 09:00:05;;;;;;;3.50;3.20;;;;;;;29.13;40.58;94813.66;5089757;28;20626;-45
2023/06/19 09:02:43;;;;;;;3.47;3.17;;;;;;;28.99;41.70;94798.28;5089436;28;20212;-45
2023/06/19 09:05:16;;;;;;;3.42;3.13;;;;;;;29.02;41.76;94807.53;5088695;28;20645;-47
2023/06/19 09:07:43;;;;;;;3.47;3.17;;;;;;;28.95;39.44;94814.81;5088767;28;20201;-47
2023/06/19 09:10:16;;;;;;;3.47;2.88;;;;;;;28.78;38.93;94811.47;5089045;28;20197;-46
2023/06/19 09:12:44;;;;;;;3.30;3.00;;;;;;;28.76;40.47;94803.84;5087188;28;20217;-46
2023/06/19 09:15:14;;;;;;;3.80;3.42;;;;;;;28.84;41.78;94800.72;5092344;28;20657;-46
2023/06/19 09:17:41;;;;;;;3.50;3.20;;;;;;;28.91;41.35;94803.97;5088865;28;20202;-45
2023/06/19 09:20:11;;;;;;;3.33;3.03;;;;;;;28.97;40.63;94797.75;5088378;28;20929;-46
2023/06/19 09:22:40;;;;;;;3.60;3.30;;;;;;;28.87;41.53;94802.09;5089087;28;20198;-46
2023/06/19 09:25:10;;;;;;;4.20;2.95;;;;;;;28.95;40.35;94799.00;5088329;28;20708;-44
2023/06/19 09:27:36;;;;;;;3.55;3.25;;;;;;;29.04;38.90;94800.16;5088709;28;20251;-46
2023/06/19 09:30:06;;;;;;;4.15;3.40;;;;;;;29.08;39.56;94795.97;5088641;28;20189;-45
2023/06/19 09:32:32;;;;;;;3.47;3.17;;;;;;;28.96;39.26;94796.13;5088244;28;20224;-45
2023/06/19 09:34:59;;;;;;;4.25;3.72;;;;;;;28.84;40.31;94797.31;5088695;28;20640;-45
2023/06/19 09:37:28;;;;;;;3.85;3.42;;;;;;;28.69;41.64;94792.69;5088298;28;20568;-47
2023/06/19 09:39:58;;;;;;;4.22;3.70;;;;;;;28.71;42.21;94788.78;5088273;28;20178;-47
2023/06/19 09:42:29;;;;;;;5.07;3.67;;;;;;;28.75;41.88;94805.66;5088551;28;20193;-47
2023/06/19 09:45:01;;;;;;;3.33;3.13;;;;;;;28.77;41.89;94800.16;5084944;28;21189;-44
2023/06/19 09:47:31;;;;;;;3.70;3.22;;;;;;;28.67;42.17;94800.84;5087693;28;20193;-47
2023/06/19 09:50:00;;;;;;;3.50;3.15;;;;;;;28.52;41.99;94784.91;5088536;28;20601;-47
2023/06/19 09:52:27;;;;;;;5.30;3.25;;;;;;;28.49;42.12;94794.06;5089607;28;20229;-47
2023/06/19 09:54:57;;;;;;;3.67;3.35;;;;;;;28.43;42.44;94791.66;5088459;28;20233;-46
2023/06/19 09:57:25;;;;;;;3.97;3.38;;;;;;;28.55;42.35;94796.78;5090865;28;20207;-46
2023/06/19 09:59:56;;;;;;;3.55;3.25;;;;;;;28.44;42.69;94775.59;5090861;28;20200;-46
2023/06/19 10:02:23;;;;;;;4.30;3.83;;;;;;;28.59;41.10;94795.25;5091888;28;20201;-46
2023/06/19 10:04:55;;;;;;;4.40;3.80;;;;;;;28.43;41.30;94802.16;5090796;28;20656;-45
2023/06/19 10:07:23;;;;;;;4.63;3.70;;;;;;;28.37;41.49;94795.25;5090594;28;20198;-45
2023/06/19 10:09:59;;;;;;;3.70;3.40;;;;;;;28.26;39.39;94797.72;5090103;28;20628;-45
2023/06/19 10:12:38;;;;;;;3.65;3.28;;;;;;;28.19;39.87;94781.34;5089795;28;20278;-45
2023/06/19 10:15:17;;;;;;;4.05;3.47;;;;;;;28.17;41.67;94777.38;5087990;28;20254;-44
2023/06/19 10:17:47;;;;;;;4.05;3.75;;;;;;;28.25;41.76;94772.47;5090232;28;20338;-45
2023/06/19 10:20:32;;;;;;;3.58;3.28;;;;;;;28.31;40.26;94785.69;5089766;28;20186;-46
2023/06/19 10:23:01;;;;;;;4.28;3.88;;;;;;;28.25;41.67;94772.47;5089290;28;20221;-46
2023/06/19 10:25:34;;;;;;;6.05;3.50;;;;;;;28.21;43.49;94757.44;5089228;28;20217;-46
2023/06/19 10:28:01;;;;;;;3.70;3.40;;;;;;;28.17;41.60;94732.66;5090461;28;20258;-47
2023/06/19 10:30:29;;;;;;;4.88;3.60;;;;;;;28.30;40.47;94761.22;5088626;28;20189;-46
2023/06/19 10:32:57;;;;;;;3.60;3.30;;;;;;;28.23;40.76;94768.50;5090120;28;20205;-46
2023/06/19 10:35:24;;;;;;;4.00;3.40;;;;;;;28.28;42.91;94765.91;5088764;28;20182;-45
2023/06/19 10:37:51;;;;;;;3.70;3.40;;;;;;;28.36;42.34;94765.50;5090038;28;20232;-43
2023/06/19 10:40:18;;;;;;;3.55;3.25;;;;;;;28.27;42.49;94766.97;5089488;28;20647;-44
2023/06/19 10:42:47;;;;;;;3.95;3.55;;;;;;;28.29;42.01;94766.72;5088865;28;20649;-46
2023/06/19 10:45:17;;;;;;;4.22;3.88;;;;;;;28.24;44.34;94764.84;5089003;28;20186;-45
2023/06/19 10:47:44;;;;;;;3.97;3.50;;;;;;;28.30;42.14;94765.69;5088077;28;20242;-46
2023/06/19 10:50:15;;;;;;;4.18;3.65;;;;;;;28.22;40.91;94767.69;5089451;28;20185;-46
2023/06/19 10:52:43;;;;;;;4.32;2.85;;;;;;;28.21;41.51;94760.06;5086483;28;20603;-43
2023/06/19 10:55:11;;;;;;;4.90;3.42;;;;;;;28.32;41.58;94768.84;5089142;28;20702;-43
2023/06/19 10:57:38;;;;;;;3.60;3.30;;;;;;;28.32;42.73;94760.97;5088848;28;20209;-46
2023/06/19 11:00:12;;;;;;;5.63;3.60;;;;;;;28.43;42.09;94766.13;5087502;28;20572;-44
2023/06/19 11:02:42;;;;;;;3.17;2.97;;;;;;;28.41;42.52;94756.88;5089532;28;20201;-45
2023/06/19 11:05:10;;;;;;;3.90;3.60;;;;;;;28.55;42.77;94754.66;5088956;28;20205;-43
2023/06/19 11:07:36;;;;;;;4.15;3.58;;;;;;;28.69;42.74;94756.66;5089632;28;20568;-45
2023/06/19 11:10:04;;;;;;;3.97;3.67;;;;;;;28.88;42.66;94748.38;5089573;28;20216;-45
2023/06/19 11:12:32;;;;;;;4.07;3.72;;;;;;;28.89;43.10;94750.78;5088684;28;20210;-45
2023/06/19 11:14:59;;;;;;;5.18;3.80;;;;;;;28.85;41.00;94757.59;5089125;28;20273;-47
2023/06/19 11:17:27;;;;;;;3.78;3.47;;;;;;;28.70;41.96;94757.44;5088722;28;20204;-45
2023/06/19 11:19:58;;;;;;;3.67;3.38;;;;;;;28.74;43.25;94756.69;5089505;28;20194;-45
2023/06/19 11:22:37;;;;;;;4.20;3.90;;;;;;;28.75;42.06;94757.47;5085889;28;20196;-46
2023/06/19 11:25:04;;;;;;;4.97;3.97;;;;;;;28.65;42.85;94752.13;5087648;28;20229;-46
2023/06/19 11:27:32;;;;;;;4.22;3.10;;;;;;;28.57;43.26;94748.09;5087999;28;20241;-45
2023/06/19 11:29:59;;;;;;;3.60;3.30;;;;;;;28.49;43.79;94748.53;5089287;28;20201;-46
2023/06/19 11:32:34;;;;;;;5.43;4.00;;;;;;;28.55;44.09;94741.50;5088519;28;20208;-45
2023/06/19 11:35:07;;;;;;;4.22;3.63;;;;;;;28.74;43.35;94754.06;5091150;28;20621;-47
2023/06/19 11:37:34;;;;;;;3.90;3.60;;;;;;;28.72;43.41;94736.94;5088552;28;20549;-46